Time;durP1;ratioP1;P1;durP2;ratioP2;P2;SDS_P1;SDS_P2;PMS_P1;PMS_P2;Temp;Humidity;BMP_temperature;BMP_pressure;BME280_temperature;BME280_humidity;BME280_pressure;Samples;Min_cycle;Max_cycle;Signal;HPM_P1;HPM_P2
2020/12/30 00:00:24;;;;;;;21.98;14.15;;;2.70;99.90;;;;;;5035522;28;20369;-77
2020/12/30 00:02:50;;;;;;;20.50;14.75;;;2.70;99.90;;;;;;5035651;28;20032;-78
2020/12/30 00:05:16;;;;;;;25.70;15.38;;;2.70;99.90;;;;;;5030589;28;20475;-77
2020/12/30 00:07:41;;;;;;;24.90;16.00;;;2.70;99.90;;;;;;5034023;28;20029;-77
2020/12/30 00:10:10;;;;;;;26.92;17.40;;;2.70;99.90;;;;;;5027964;28;20392;-77
2020/12/30 00:12:37;;;;;;;27.52;16.23;;;2.80;99.90;;;;;;5031872;28;20021;-76
2020/12/30 00:15:04;;;;;;;28.17;17.27;;;2.80;99.90;;;;;;5026858;28;20087;-77
2020/12/30 00:17:29;;;;;;;28.73;17.20;;;2.80;99.90;;;;;;5029320;28;20030;-76
2020/12/30 00:19:55;;;;;;;29.30;19.08;;;2.90;99.90;;;;;;5027725;28;20090;-76
2020/12/30 00:22:20;;;;;;;27.60;17.20;;;2.90;99.90;;;;;;5028631;28;20151;-76
2020/12/30 00:24:47;;;;;;;27.80;18.80;;;2.90;99.90;;;;;;5044473;28;20403;-76
2020/12/30 00:27:13;;;;;;;26.65;17.75;;;2.90;99.90;;;;;;5026526;28;20026;-78
2020/12/30 00:29:38;;;;;;;30.85;18.33;;;2.90;99.90;;;;;;5028688;28;20040;-76
2020/12/30 00:32:05;;;;;;;28.30;19.42;;;2.90;99.90;;;;;;5030945;28;20053;-78
2020/12/30 00:34:31;;;;;;;30.52;18.80;;;2.90;99.90;;;;;;5033954;28;20124;-78
2020/12/30 00:36:56;;;;;;;28.60;17.55;;;3.00;99.90;;;;;;5032123;28;20179;-77
2020/12/30 00:39:22;;;;;;;29.67;19.08;;;3.00;99.90;;;;;;5036573;28;20032;-77
2020/12/30 00:41:56;;;;;;;32.97;20.60;;;3.00;99.90;;;;;;5027786;28;20056;-77
2020/12/30 00:44:22;;;;;;;27.83;18.55;;;3.00;99.90;;;;;;5027343;28;20028;-77
2020/12/30 00:46:52;;;;;;;35.80;19.63;;;3.00;99.90;;;;;;5033354;28;20025;-76
2020/12/30 00:49:17;;;;;;;32.30;19.38;;;3.00;99.90;;;;;;5032789;28;20027;-77
2020/12/30 00:51:48;;;;;;;35.20;19.67;;;3.00;99.90;;;;;;5033675;28;20025;-77
2020/12/30 00:54:14;;;;;;;37.17;20.75;;;3.00;99.90;;;;;;5037988;28;20037;-77
2020/12/30 00:56:39;;;;;;;36.08;22.20;;;3.10;99.90;;;;;;5033389;28;20113;-77
2020/12/30 00:59:05;;;;;;;39.70;23.23;;;3.10;99.90;;;;;;5033039;28;20029;-78
2020/12/30 01:01:30;;;;;;;36.03;23.02;;;3.10;99.90;;;;;;5033758;28;20028;-78
2020/12/30 01:03:56;;;;;;;37.20;23.30;;;3.10;99.90;;;;;;5028028;28;20559;-77
2020/12/30 01:06:21;;;;;;;36.58;22.60;;;3.10;99.90;;;;;;5028897;28;20032;-77
2020/12/30 01:08:47;;;;;;;39.53;24.05;;;3.10;99.90;;;;;;5028733;28;20021;-77
2020/12/30 01:11:12;;;;;;;39.42;23.70;;;3.20;99.90;;;;;;5033260;28;20087;-78
2020/12/30 01:13:38;;;;;;;41.03;23.27;;;3.20;99.90;;;;;;5044871;28;20029;-78
2020/12/30 01:16:03;;;;;;;41.95;24.77;;;3.20;99.90;;;;;;5036885;28;20037;-78
2020/12/30 01:18:29;;;;;;;39.15;24.63;;;3.20;99.90;;;;;;5033895;28;20026;-77
2020/12/30 01:21:02;;;;;;;40.10;24.60;;;3.20;99.90;;;;;;5031738;28;20045;-79
2020/12/30 01:23:28;;;;;;;43.95;25.13;;;3.20;99.90;;;;;;5031663;28;20025;-78
2020/12/30 01:25:55;;;;;;;41.30;25.63;;;3.20;99.90;;;;;;5032021;28;20049;-79
2020/12/30 01:28:21;;;;;;;36.80;24.52;;;3.20;99.90;;;;;;5031517;28;20021;-79
2020/12/30 01:30:47;;;;;;;42.45;27.15;;;3.30;99.90;;;;;;5052635;28;20025;-78
2020/12/30 01:33:13;;;;;;;43.88;26.73;;;3.30;99.90;;;;;;5034364;28;20033;-79
2020/12/30 01:35:38;;;;;;;40.42;24.80;;;3.20;99.90;;;;;;5031923;28;20080;-78
2020/12/30 01:38:04;;;;;;;43.65;24.70;;;3.30;99.90;;;;;;5041685;28;20076;-78
2020/12/30 01:40:29;;;;;;;44.03;26.13;;;3.20;99.90;;;;;;5030894;28;20026;-76
2020/12/30 01:42:55;;;;;;;45.90;28.20;;;3.20;99.90;;;;;;5046187;28;20022;-78
2020/12/30 01:45:21;;;;;;;42.08;26.15;;;3.20;99.90;;;;;;5033721;28;20032;-77
2020/12/30 01:47:49;;;;;;;41.67;25.65;;;3.30;99.90;;;;;;5046657;28;20671;-77
2020/12/30 01:50:16;;;;;;;45.17;27.52;;;3.30;99.90;;;;;;5034913;28;20140;-77
2020/12/30 01:52:42;;;;;;;46.35;27.05;;;3.30;99.90;;;;;;5035283;28;20022;-78
2020/12/30 01:55:10;;;;;;;47.30;26.40;;;3.30;99.90;;;;;;5033787;28;20065;-78
2020/12/30 01:57:37;;;;;;;49.28;27.67;;;3.30;99.90;;;;;;5029512;28;20052;-78
2020/12/30 02:00:08;;;;;;;42.78;25.90;;;3.30;99.90;;;;;;5028681;28;20033;-78
2020/12/30 02:02:34;;;;;;;40.55;26.20;;;3.30;99.90;;;;;;5039877;28;20037;-77
2020/12/30 02:05:00;;;;;;;43.15;26.35;;;3.30;99.90;;;;;;5037258;28;20033;-77
2020/12/30 02:07:26;;;;;;;44.33;25.25;;;3.30;99.90;;;;;;5031740;28;20030;-78
2020/12/30 02:09:58;;;;;;;40.80;26.20;;;3.30;99.90;;;;;;5036006;28;20014;-77
2020/12/30 02:12:24;;;;;;;41.17;25.75;;;3.30;99.90;;;;;;5033813;28;20034;-79
2020/12/30 02:14:50;;;;;;;45.65;26.88;;;3.30;99.90;;;;;;5035505;28;20039;-77
2020/12/30 02:17:16;;;;;;;37.42;24.92;;;3.30;99.90;;;;;;5033165;28;20030;-77
2020/12/30 02:19:42;;;;;;;42.42;25.83;;;3.30;99.90;;;;;;5035778;28;20025;-78
2020/12/30 02:22:11;;;;;;;49.42;26.92;;;3.30;99.90;;;;;;5032199;28;20056;-77
2020/12/30 02:24:37;;;;;;;40.58;25.17;;;3.30;99.90;;;;;;5048300;28;20068;-77
2020/12/30 02:27:04;;;;;;;42.25;25.90;;;3.30;99.90;;;;;;5031290;28;20048;-78
2020/12/30 02:29:31;;;;;;;43.13;27.38;;;3.30;99.90;;;;;;5032000;28;20112;-77
2020/12/30 02:31:58;;;;;;;38.08;24.90;;;3.30;99.90;;;;;;5032627;28;20032;-78
2020/12/30 02:34:24;;;;;;;41.03;26.00;;;3.40;99.90;;;;;;5047860;28;20407;-78
2020/12/30 02:36:50;;;;;;;42.45;27.77;;;3.40;99.90;;;;;;5032962;28;20499;-79
2020/12/30 02:39:16;;;;;;;41.83;26.00;;;3.40;99.90;;;;;;5032168;28;20029;-78
2020/12/30 02:41:42;;;;;;;40.55;26.23;;;3.40;99.90;;;;;;5031869;28;20029;-78
2020/12/30 02:44:07;;;;;;;42.10;24.83;;;3.40;99.90;;;;;;5036222;28;20040;-77
2020/12/30 02:46:34;;;;;;;40.83;24.88;;;3.40;99.90;;;;;;5047255;28;20116;-77
2020/12/30 02:49:00;;;;;;;42.85;25.67;;;3.30;99.90;;;;;;5047537;28;20090;-78
2020/12/30 02:51:25;;;;;;;42.80;24.70;;;3.30;99.90;;;;;;5030188;28;20532;-77
2020/12/30 02:53:51;;;;;;;37.67;23.83;;;3.30;99.90;;;;;;5047186;28;20033;-77
2020/12/30 02:56:17;;;;;;;38.15;23.58;;;3.30;99.90;;;;;;5029900;28;20025;-77
2020/12/30 02:58:44;;;;;;;35.70;23.40;;;3.40;99.90;;;;;;5030265;28;20037;-76
2020/12/30 03:01:10;;;;;;;38.10;23.75;;;3.40;99.90;;;;;;5046523;28;20144;-77
2020/12/30 03:03:37;;;;;;;36.00;24.38;;;3.40;99.90;;;;;;5040928;28;20040;-78
2020/12/30 03:06:03;;;;;;;34.13;23.92;;;3.30;99.90;;;;;;5030316;28;20025;-76
2020/12/30 03:08:29;;;;;;;40.30;23.27;;;3.30;99.90;;;;;;5031449;28;20033;-78
2020/12/30 03:10:54;;;;;;;40.50;25.50;;;3.30;99.90;;;;;;5030523;28;20029;-76
2020/12/30 03:13:20;;;;;;;40.17;26.42;;;3.30;99.90;;;;;;5022117;28;20029;-77
2020/12/30 03:15:45;;;;;;;34.70;23.33;;;3.30;99.90;;;;;;5037607;28;20033;-77
2020/12/30 03:18:11;;;;;;;37.08;24.10;;;3.30;99.90;;;;;;5031717;28;20033;-77
2020/12/30 03:20:36;;;;;;;39.97;23.10;;;3.40;99.90;;;;;;5028341;28;20055;-77
2020/12/30 03:23:02;;;;;;;40.55;25.27;;;3.40;99.90;;;;;;5046190;28;20064;-77
2020/12/30 03:25:27;;;;;;;39.20;24.35;;;3.40;99.90;;;;;;5041807;28;20029;-77
2020/12/30 03:27:53;;;;;;;35.63;22.73;;;3.40;99.90;;;;;;5030862;28;20040;-77
2020/12/30 03:30:19;;;;;;;38.50;23.73;;;3.40;99.90;;;;;;5038024;28;20030;-77
2020/12/30 03:32:44;;;;;;;39.53;23.75;;;3.30;99.90;;;;;;5030100;28;20033;-76
2020/12/30 03:35:10;;;;;;;35.33;22.45;;;3.30;99.90;;;;;;5029931;28;20068;-76
2020/12/30 03:37:35;;;;;;;41.13;25.10;;;3.30;99.90;;;;;;5028757;28;20037;-77
2020/12/30 03:40:01;;;;;;;36.08;22.60;;;3.30;99.90;;;;;;5032943;28;20037;-77
2020/12/30 03:42:27;;;;;;;36.35;23.67;;;3.30;99.90;;;;;;5045676;28;20035;-76
2020/12/30 03:44:52;;;;;;;31.92;22.63;;;3.30;99.90;;;;;;5026601;28;20034;-76
2020/12/30 03:47:18;;;;;;;36.20;22.77;;;3.30;99.90;;;;;;5027792;28;20559;-76
2020/12/30 03:49:43;;;;;;;34.20;22.63;;;3.30;99.90;;;;;;5028542;28;20048;-78
2020/12/30 03:52:09;;;;;;;35.97;21.98;;;3.30;99.90;;;;;;5028453;28;20021;-76
2020/12/30 03:54:35;;;;;;;37.70;23.00;;;3.30;99.90;;;;;;5044546;28;20028;-78
2020/12/30 03:57:00;;;;;;;32.42;21.27;;;3.30;99.90;;;;;;5027964;28;20038;-76
2020/12/30 03:59:26;;;;;;;34.95;23.90;;;3.30;99.90;;;;;;5038844;28;20033;-77
2020/12/30 04:01:51;;;;;;;34.10;24.13;;;3.30;99.90;;;;;;5039935;28;20591;-77
2020/12/30 04:04:17;;;;;;;37.50;24.63;;;3.30;99.90;;;;;;5040298;28;20021;-77
2020/12/30 04:06:43;;;;;;;38.70;22.15;;;3.30;99.90;;;;;;5032612;28;20049;-76
2020/12/30 04:09:12;;;;;;;32.05;21.58;;;3.30;99.90;;;;;;5035975;28;20411;-77
2020/12/30 04:11:38;;;;;;;35.35;21.17;;;3.30;99.90;;;;;;5037935;28;20013;-77
2020/12/30 04:14:03;;;;;;;30.50;21.88;;;3.30;99.90;;;;;;5028818;28;20411;-77
2020/12/30 04:16:29;;;;;;;32.97;21.83;;;3.30;99.90;;;;;;5029471;28;20500;-77
2020/12/30 04:18:55;;;;;;;32.97;21.73;;;3.40;99.90;;;;;;5026934;28;20021;-77
2020/12/30 04:21:25;;;;;;;30.23;20.38;;;3.30;99.90;;;;;;5027643;28;20037;-77
2020/12/30 04:23:52;;;;;;;30.00;20.77;;;3.30;99.90;;;;;;5045491;28;20059;-77
2020/12/30 04:26:19;;;;;;;32.70;20.20;;;3.30;99.90;;;;;;5045490;28;20022;-77
2020/12/30 04:28:45;;;;;;;30.35;19.98;;;3.30;99.90;;;;;;5046384;28;20463;-77
2020/12/30 04:31:12;;;;;;;31.52;20.02;;;3.30;99.90;;;;;;5045411;28;20049;-77
2020/12/30 04:33:38;;;;;;;30.83;21.20;;;3.30;99.90;;;;;;5045379;28;20041;-77
2020/12/30 04:36:04;;;;;;;32.08;19.45;;;3.30;99.90;;;;;;5028799;28;20056;-77
2020/12/30 04:38:31;;;;;;;27.55;19.50;;;3.30;99.90;;;;;;5045641;28;20025;-77
2020/12/30 04:41:01;;;;;;;33.28;20.63;;;3.30;99.90;;;;;;5029568;28;20175;-77
2020/12/30 04:43:32;;;;;;;32.03;19.10;;;3.30;99.90;;;;;;5028391;28;20502;-77
2020/12/30 04:45:59;;;;;;;31.65;19.88;;;3.30;99.90;;;;;;5045367;28;20022;-77
2020/12/30 04:48:26;;;;;;;30.40;19.30;;;3.30;99.90;;;;;;5040005;28;20613;-77
2020/12/30 04:50:52;;;;;;;31.13;19.35;;;3.30;99.90;;;;;;5036383;28;20044;-76
2020/12/30 04:53:22;;;;;;;28.25;19.58;;;3.30;99.90;;;;;;5034698;28;20053;-77
2020/12/30 04:55:49;;;;;;;31.08;20.92;;;3.30;99.90;;;;;;5034285;28;20492;-77
2020/12/30 04:58:19;;;;;;;32.95;20.38;;;3.30;99.90;;;;;;5031419;28;20014;-77
2020/12/30 05:00:48;;;;;;;33.22;21.63;;;3.30;99.90;;;;;;5031389;28;20424;-77
2020/12/30 05:03:14;;;;;;;30.83;20.38;;;3.30;99.90;;;;;;5028877;28;20025;-75
2020/12/30 05:05:41;;;;;;;31.65;20.88;;;3.30;99.90;;;;;;5028624;28;20017;-77
2020/12/30 05:08:13;;;;;;;31.50;21.48;;;3.40;99.90;;;;;;5043973;28;20022;-77
2020/12/30 05:10:41;;;;;;;31.83;22.08;;;3.30;99.90;;;;;;5043894;28;20528;-76
2020/12/30 05:13:07;;;;;;;36.53;22.65;;;3.30;99.90;;;;;;5026845;28;20040;-76
2020/12/30 05:15:33;;;;;;;34.50;21.55;;;3.30;99.90;;;;;;5028036;28;20072;-77
2020/12/30 05:18:08;;;;;;;28.20;19.75;;;3.30;99.90;;;;;;5041862;28;20064;-77
2020/12/30 05:20:37;;;;;;;32.50;21.95;;;3.40;99.90;;;;;;5027691;28;20057;-76
2020/12/30 05:23:07;;;;;;;35.78;21.80;;;3.40;99.90;;;;;;5031825;28;20021;-77
2020/12/30 05:25:53;;;;;;;39.70;23.48;;;3.30;99.90;;;;;;5030926;28;20022;-76
2020/12/30 05:28:19;;;;;;;35.28;21.70;;;3.30;99.90;;;;;;5031919;28;20018;-77
2020/12/30 05:30:48;;;;;;;36.45;22.65;;;3.30;99.90;;;;;;5028099;28;20028;-77
2020/12/30 05:33:13;;;;;;;31.05;22.98;;;3.30;99.90;;;;;;5032769;28;20033;-77
2020/12/30 05:35:39;;;;;;;39.45;22.30;;;3.30;99.90;;;;;;5030922;28;20021;-77
2020/12/30 05:38:04;;;;;;;35.33;23.35;;;3.30;99.90;;;;;;5031185;28;20018;-77
2020/12/30 05:40:32;;;;;;;31.65;21.42;;;3.30;99.90;;;;;;5029796;28;20943;-77
2020/12/30 05:43:18;;;;;;;38.58;23.65;;;3.30;99.90;;;;;;5032097;28;20022;-77
2020/12/30 05:45:52;;;;;;;32.83;21.98;;;3.30;99.90;;;;;;5028746;28;20045;-76
2020/12/30 05:48:19;;;;;;;36.40;23.05;;;3.30;99.90;;;;;;5030557;28;20458;-77
2020/12/30 05:50:58;;;;;;;34.88;22.52;;;3.30;99.90;;;;;;5032558;28;20075;-76
2020/12/30 05:53:25;;;;;;;34.20;23.08;;;3.30;99.90;;;;;;5020247;28;20037;-76
2020/12/30 05:55:52;;;;;;;34.47;22.33;;;3.30;99.90;;;;;;5048067;28;20022;-77
2020/12/30 05:58:18;;;;;;;31.15;21.38;;;3.40;99.90;;;;;;5032848;28;20013;-76
2020/12/30 06:00:46;;;;;;;30.98;19.33;;;3.30;99.90;;;;;;5032581;28;20590;-76
2020/12/30 06:03:26;;;;;;;34.15;22.08;;;3.30;99.90;;;;;;5030450;28;20099;-76
2020/12/30 06:05:53;;;;;;;33.67;21.67;;;3.30;99.90;;;;;;5031835;28;20018;-76
2020/12/30 06:08:21;;;;;;;34.50;22.20;;;3.30;99.90;;;;;;5030488;28;20017;-76
2020/12/30 06:10:48;;;;;;;32.53;21.70;;;3.30;99.90;;;;;;5027957;28;20013;-76
2020/12/30 06:13:22;;;;;;;31.58;21.38;;;3.30;99.90;;;;;;5030063;28;20495;-76
2020/12/30 06:15:55;;;;;;;31.80;20.73;;;3.30;99.90;;;;;;5025523;28;20018;-77
2020/12/30 06:18:22;;;;;;;27.85;19.15;;;3.30;99.90;;;;;;5030177;28;20404;-77
2020/12/30 06:20:51;;;;;;;32.55;21.35;;;3.30;99.90;;;;;;5031378;28;20060;-76
2020/12/30 06:23:17;;;;;;;31.85;21.65;;;3.30;99.90;;;;;;5045257;28;20017;-77
2020/12/30 06:25:50;;;;;;;29.27;20.80;;;3.30;99.90;;;;;;5030724;28;20628;-76
2020/12/30 06:28:17;;;;;;;33.15;21.00;;;3.40;99.90;;;;;;5030287;28;20504;-77
2020/12/30 06:30:44;;;;;;;30.98;20.52;;;3.30;99.90;;;;;;5030522;28;20071;-77
2020/12/30 06:33:11;;;;;;;30.55;20.75;;;3.30;99.90;;;;;;5030069;28;20056;-77
2020/12/30 06:35:40;;;;;;;29.70;20.10;;;3.30;99.90;;;;;;5028591;28;20029;-76
2020/12/30 06:38:20;;;;;;;30.90;20.48;;;3.30;99.90;;;;;;5026348;28;20021;-77
2020/12/30 06:40:56;;;;;;;26.52;19.38;;;3.30;99.90;;;;;;5021547;28;20036;-76
2020/12/30 06:43:46;;;;;;;31.43;18.47;;;3.30;99.90;;;;;;5029531;28;20136;-77
2020/12/30 06:46:15;;;;;;;27.85;18.92;;;3.30;99.90;;;;;;5045222;28;20021;-76
2020/12/30 06:49:01;;;;;;;29.77;19.60;;;3.30;99.90;;;;;;5030547;28;20025;-76
2020/12/30 06:51:34;;;;;;;27.70;20.10;;;3.30;99.90;;;;;;5032280;28;20064;-77
2020/12/30 06:54:00;;;;;;;27.38;19.40;;;3.30;99.90;;;;;;5029875;28;20431;-76
2020/12/30 06:56:43;;;;;;;29.75;18.70;;;3.30;99.90;;;;;;5028905;28;20022;-77
2020/12/30 06:59:27;;;;;;;28.15;18.13;;;3.30;99.90;;;;;;5029555;28;20029;-77
2020/12/30 07:02:02;;;;;;;27.40;18.88;;;3.30;99.90;;;;;;5023052;28;20029;-76
2020/12/30 07:04:33;;;;;;;26.17;18.02;;;3.40;99.90;;;;;;5030473;28;20091;-77
2020/12/30 07:06:59;;;;;;;28.75;19.55;;;3.30;99.90;;;;;;5031607;28;20033;-76
2020/12/30 07:09:32;;;;;;;26.80;18.65;;;3.30;99.90;;;;;;5035385;28;20025;-77
2020/12/30 07:11:59;;;;;;;24.05;17.30;;;3.30;99.90;;;;;;5033001;28;20013;-77
2020/12/30 07:14:27;;;;;;;27.50;18.20;;;3.30;99.90;;;;;;5032897;28;20022;-77
2020/12/30 07:16:54;;;;;;;25.90;18.48;;;3.30;99.90;;;;;;5028535;28;20028;-77
2020/12/30 07:19:31;;;;;;;25.65;17.40;;;3.30;99.90;;;;;;5034140;28;20025;-77
2020/12/30 07:22:00;;;;;;;28.23;18.35;;;3.30;99.90;;;;;;5031277;28;20026;-76
2020/12/30 07:24:31;;;;;;;27.27;18.50;;;3.30;99.90;;;;;;5016716;28;20025;-76
2020/12/30 07:27:06;;;;;;;25.20;17.45;;;3.30;99.90;;;;;;5045391;28;20029;-78
2020/12/30 07:29:32;;;;;;;28.83;19.15;;;3.30;99.90;;;;;;5039258;28;20028;-77
2020/12/30 07:32:05;;;;;;;25.23;16.85;;;3.30;99.90;;;;;;5044456;28;20108;-77
2020/12/30 07:34:33;;;;;;;28.38;18.83;;;3.30;99.90;;;;;;5040641;28;20112;-78
2020/12/30 07:36:59;;;;;;;30.73;19.17;;;3.30;99.90;;;;;;5037781;28;20075;-77
2020/12/30 07:39:46;;;;;;;26.88;18.98;;;3.30;99.90;;;;;;5038705;28;20060;-77
2020/12/30 07:42:19;;;;;;;26.95;18.75;;;3.30;99.90;;;;;;5032305;28;20120;-77
2020/12/30 07:44:53;;;;;;;26.20;18.05;;;3.30;99.90;;;;;;5029034;28;20124;-78
2020/12/30 07:47:20;;;;;;;26.00;18.60;;;3.30;99.90;;;;;;5044665;28;20377;-77
2020/12/30 07:49:46;;;;;;;30.73;20.33;;;3.30;99.90;;;;;;5041393;28;20392;-77
2020/12/30 07:52:12;;;;;;;27.58;20.20;;;3.30;99.90;;;;;;5036716;28;20025;-78
2020/12/30 07:54:39;;;;;;;27.88;19.85;;;3.30;99.90;;;;;;5041769;28;20032;-78
2020/12/30 07:57:07;;;;;;;28.50;19.20;;;3.30;99.90;;;;;;5033222;28;20064;-77
2020/12/30 07:59:33;;;;;;;30.38;20.00;;;3.30;99.90;;;;;;5044472;28;20033;-76
2020/12/30 08:02:06;;;;;;;28.63;19.05;;;3.30;99.90;;;;;;5035398;28;20056;-78
2020/12/30 08:04:34;;;;;;;33.22;19.27;;;3.30;99.90;;;;;;5046203;28;20036;-77
2020/12/30 08:07:06;;;;;;;24.33;18.95;;;3.30;99.90;;;;;;5031022;28;20052;-78
2020/12/30 08:09:37;;;;;;;29.83;19.83;;;3.30;99.90;;;;;;5044912;28;20025;-77
2020/12/30 08:12:05;;;;;;;29.73;19.63;;;3.30;99.90;;;;;;5023877;28;20148;-77
2020/12/30 08:14:32;;;;;;;26.08;19.88;;;3.30;99.90;;;;;;5028292;28;20163;-77
2020/12/30 08:17:05;;;;;;;29.75;19.58;;;3.30;99.90;;;;;;5036893;28;20041;-76
2020/12/30 08:19:42;;;;;;;26.52;19.10;;;3.30;99.90;;;;;;5044379;28;20364;-76
2020/12/30 08:22:18;;;;;;;28.92;18.85;;;3.40;99.90;;;;;;5043604;28;20034;-77
2020/12/30 08:24:45;;;;;;;24.90;18.73;;;3.30;99.90;;;;;;5016128;28;20042;-77
2020/12/30 08:27:13;;;;;;;27.33;19.40;;;3.30;99.90;;;;;;5027009;28;20029;-77
2020/12/30 08:29:40;;;;;;;27.30;19.80;;;3.40;99.90;;;;;;5027420;28;20067;-78
2020/12/30 08:32:23;;;;;;;26.55;19.38;;;3.30;99.90;;;;;;5028008;28;20488;-77
2020/12/30 08:35:13;;;;;;;27.00;18.75;;;3.40;99.90;;;;;;5014989;28;20515;-77
2020/12/30 08:37:47;;;;;;;27.52;19.13;;;3.40;99.90;;;;;;5029103;28;20783;-77
2020/12/30 08:40:24;;;;;;;27.45;19.10;;;3.40;99.90;;;;;;5029054;28;20017;-77
2020/12/30 08:42:52;;;;;;;26.00;19.35;;;3.40;99.90;;;;;;5044977;28;20025;-77
2020/12/30 08:45:27;;;;;;;29.20;18.60;;;3.40;99.90;;;;;;5028791;28;20099;-77
2020/12/30 08:47:54;;;;;;;25.70;18.63;;;3.40;99.90;;;;;;5042596;28;20021;-77
2020/12/30 08:50:23;;;;;;;28.98;18.55;;;3.40;99.90;;;;;;5028897;28;20516;-77
2020/12/30 08:52:49;;;;;;;24.92;17.10;;;3.40;99.90;;;;;;5037837;28;20037;-78
2020/12/30 08:55:15;;;;;;;26.05;19.80;;;3.30;99.90;;;;;;5019596;28;20064;-79
2020/12/30 08:57:48;;;;;;;28.40;18.88;;;3.40;99.90;;;;;;5034411;28;20112;-77
2020/12/30 09:00:25;;;;;;;24.95;18.23;;;3.40;99.90;;;;;;5037107;28;20029;-77
2020/12/30 09:02:52;;;;;;;29.05;19.13;;;3.40;99.90;;;;;;5033741;28;20029;-77
2020/12/30 09:05:28;;;;;;;27.15;17.77;;;3.40;99.90;;;;;;5030056;28;20038;-78
2020/12/30 09:07:54;;;;;;;25.15;18.08;;;3.40;99.90;;;;;;5033642;28;20052;-77
2020/12/30 09:10:20;;;;;;;28.92;18.45;;;3.30;99.90;;;;;;5034436;28;20503;-78
2020/12/30 09:12:47;;;;;;;28.92;19.25;;;3.30;99.90;;;;;;5027106;28;20086;-77
2020/12/30 09:15:14;;;;;;;27.40;19.80;;;3.30;99.90;;;;;;5032696;28;20412;-77
2020/12/30 09:17:40;;;;;;;24.20;18.88;;;3.30;99.90;;;;;;5027747;28;20073;-78
2020/12/30 09:20:13;;;;;;;28.25;18.40;;;3.30;99.90;;;;;;5035482;28;20492;-77
2020/12/30 09:22:39;;;;;;;26.05;18.30;;;3.30;99.90;;;;;;5041739;28;20025;-76
2020/12/30 09:25:06;;;;;;;29.80;20.70;;;3.30;99.90;;;;;;5031690;28;20026;-78
2020/12/30 09:27:34;;;;;;;31.42;20.05;;;3.30;99.90;;;;;;5032793;28;20056;-78
2020/12/30 09:30:08;;;;;;;28.13;19.27;;;3.30;99.90;;;;;;5049018;28;20013;-77
2020/12/30 09:32:33;;;;;;;27.35;19.67;;;3.30;99.90;;;;;;5035673;28;20018;-77
2020/12/30 09:35:05;;;;;;;34.30;22.10;;;3.30;99.90;;;;;;5034747;28;20117;-78
2020/12/30 09:37:31;;;;;;;32.58;20.88;;;3.30;99.90;;;;;;5047305;28;20059;-79
2020/12/30 09:40:12;;;;;;;32.38;20.45;;;3.30;99.90;;;;;;5034475;28;20032;-78
2020/12/30 09:42:39;;;;;;;31.17;21.23;;;3.30;99.90;;;;;;5029538;28;20033;-78
2020/12/30 09:45:12;;;;;;;31.65;21.33;;;3.30;99.90;;;;;;5048505;28;20060;-79
2020/12/30 09:47:39;;;;;;;29.58;20.20;;;3.30;99.90;;;;;;5032770;28;20026;-78
2020/12/30 09:50:06;;;;;;;30.50;21.80;;;3.20;99.90;;;;;;5032317;28;20053;-78
2020/12/30 09:52:40;;;;;;;36.20;20.73;;;3.30;99.90;;;;;;5031013;28;20075;-78
2020/12/30 09:55:07;;;;;;;31.75;20.58;;;3.20;99.90;;;;;;5031440;28;20583;-78
2020/12/30 09:57:34;;;;;;;31.70;22.10;;;3.20;99.90;;;;;;5033647;28;20017;-77
2020/12/30 10:00:00;;;;;;;31.38;21.23;;;3.20;99.90;;;;;;5031987;28;20021;-79
2020/12/30 10:02:27;;;;;;;31.67;20.75;;;3.20;99.90;;;;;;5048306;28;20022;-76
2020/12/30 10:04:52;;;;;;;30.55;21.30;;;3.20;99.90;;;;;;5031902;28;20029;-77
2020/12/30 10:07:18;;;;;;;32.25;21.05;;;3.20;99.90;;;;;;5033083;28;20034;-78
2020/12/30 10:09:44;;;;;;;31.80;20.65;;;3.20;99.90;;;;;;5032713;28;20106;-79
2020/12/30 10:12:10;;;;;;;32.65;20.65;;;3.30;99.90;;;;;;5031445;28;20095;-77
2020/12/30 10:14:35;;;;;;;30.23;20.95;;;3.30;99.90;;;;;;5047233;28;20033;-79
2020/12/30 10:17:01;;;;;;;33.30;20.85;;;3.30;99.90;;;;;;5030693;28;20033;-78
2020/12/30 10:19:26;;;;;;;32.53;21.05;;;3.30;99.90;;;;;;5032433;28;20038;-78
2020/12/30 10:21:52;;;;;;;32.83;21.25;;;3.30;99.90;;;;;;5031276;28;20018;-78
2020/12/30 10:24:17;;;;;;;32.70;21.42;;;3.30;99.90;;;;;;5030106;28;20456;-79
2020/12/30 10:26:43;;;;;;;33.97;21.45;;;3.30;99.90;;;;;;5046995;28;20049;-78
2020/12/30 10:29:08;;;;;;;33.30;21.17;;;3.30;99.90;;;;;;5032389;28;20026;-78
2020/12/30 10:31:34;;;;;;;33.90;20.38;;;3.30;99.90;;;;;;5031237;28;20056;-78
2020/12/30 10:34:00;;;;;;;31.23;20.27;;;3.30;99.90;;;;;;5031473;28;20613;-78
2020/12/30 10:36:32;;;;;;;30.13;20.55;;;3.30;99.90;;;;;;5047015;28;20034;-78
2020/12/30 10:39:00;;;;;;;32.70;21.42;;;3.20;99.90;;;;;;5047730;28;20029;-78
2020/12/30 10:41:25;;;;;;;32.20;21.90;;;3.20;99.90;;;;;;5030704;28;20109;-77
2020/12/30 10:43:51;;;;;;;32.17;21.30;;;3.20;99.90;;;;;;5030481;28;20122;-78
2020/12/30 10:46:17;;;;;;;35.78;21.85;;;3.30;99.90;;;;;;5031398;28;20042;-78
2020/12/30 10:48:44;;;;;;;30.85;19.77;;;3.20;99.90;;;;;;5032430;28;20495;-77
2020/12/30 10:51:11;;;;;;;31.15;20.77;;;3.20;99.90;;;;;;5031796;28;20056;-78
2020/12/30 10:53:40;;;;;;;29.52;19.73;;;3.20;99.90;;;;;;5031646;28;20332;-78
2020/12/30 10:56:08;;;;;;;30.95;20.15;;;3.20;99.90;;;;;;5030181;28;20030;-78
2020/12/30 10:58:34;;;;;;;29.92;20.77;;;3.30;99.90;;;;;;5031039;28;20155;-78
2020/12/30 11:01:00;;;;;;;32.92;21.17;;;3.30;99.90;;;;;;5033947;28;20026;-78
2020/12/30 11:03:25;;;;;;;31.35;19.63;;;3.30;99.90;;;;;;5030524;28;20021;-77
2020/12/30 11:05:51;;;;;;;30.98;19.92;;;3.30;99.90;;;;;;5030572;28;20049;-77
2020/12/30 11:08:16;;;;;;;33.33;21.15;;;3.30;99.90;;;;;;5033232;28;20025;-77
2020/12/30 11:10:42;;;;;;;29.27;18.63;;;3.30;99.90;;;;;;5033132;28;20033;-78
2020/12/30 11:13:07;;;;;;;28.58;18.77;;;3.30;99.90;;;;;;5031768;28;20029;-79
2020/12/30 11:15:36;;;;;;;27.73;19.00;;;3.40;99.90;;;;;;5031070;28;20440;-78
2020/12/30 11:18:03;;;;;;;28.98;19.27;;;3.40;99.90;;;;;;5032151;28;20052;-78
2020/12/30 11:20:29;;;;;;;28.27;18.92;;;3.40;99.90;;;;;;5030872;28;20124;-77
2020/12/30 11:22:55;;;;;;;35.25;20.48;;;3.40;99.90;;;;;;5030899;28;20452;-78
2020/12/30 11:25:20;;;;;;;25.75;17.70;;;3.40;99.90;;;;;;5046422;28;20033;-79
2020/12/30 11:27:46;;;;;;;24.90;17.63;;;3.40;99.90;;;;;;5046379;28;20021;-78
2020/12/30 11:30:12;;;;;;;29.30;19.08;;;3.40;99.90;;;;;;5041127;28;20028;-77
2020/12/30 11:32:39;;;;;;;26.33;18.98;;;3.40;99.90;;;;;;5032553;28;20018;-79
2020/12/30 11:35:05;;;;;;;28.88;18.88;;;3.40;99.90;;;;;;5031502;28;20037;-79
2020/12/30 11:37:30;;;;;;;32.30;21.00;;;3.40;99.90;;;;;;5034430;28;20077;-79
2020/12/30 11:39:56;;;;;;;28.33;19.00;;;3.50;99.90;;;;;;5048652;28;20096;-78
2020/12/30 11:42:21;;;;;;;27.35;17.88;;;3.50;99.90;;;;;;5031701;28;20463;-78
2020/12/30 11:44:47;;;;;;;27.55;18.15;;;3.50;99.90;;;;;;5031024;28;20022;-78
2020/12/30 11:47:13;;;;;;;25.83;17.95;;;3.50;99.90;;;;;;5032344;28;20021;-78
2020/12/30 11:49:38;;;;;;;24.33;16.83;;;3.50;99.90;;;;;;5047458;28;20076;-78
2020/12/30 11:52:04;;;;;;;28.52;19.17;;;3.50;99.90;;;;;;5048014;28;20036;-78
2020/12/30 11:54:29;;;;;;;26.95;18.55;;;3.50;99.90;;;;;;5031996;28;20033;-79
2020/12/30 11:56:55;;;;;;;27.30;18.45;;;3.50;99.90;;;;;;5046409;28;20075;-78
2020/12/30 11:59:21;;;;;;;30.35;18.85;;;3.50;99.90;;;;;;5022884;28;20434;-78
2020/12/30 12:01:46;;;;;;;26.73;17.85;;;3.50;99.90;;;;;;5029344;28;20526;-78
2020/12/30 12:04:12;;;;;;;26.38;17.95;;;3.50;99.90;;;;;;5044736;28;20033;-77
2020/12/30 12:06:37;;;;;;;28.65;16.88;;;3.50;99.90;;;;;;5028370;28;20104;-78
2020/12/30 12:09:03;;;;;;;26.40;18.88;;;3.50;99.90;;;;;;5045847;28;20136;-78
2020/12/30 12:11:29;;;;;;;31.05;18.70;;;3.50;99.90;;;;;;5029727;28;20014;-78
2020/12/30 12:13:55;;;;;;;26.38;18.17;;;3.50;99.90;;;;;;5028582;28;20511;-78
2020/12/30 12:16:21;;;;;;;28.25;18.45;;;3.50;99.90;;;;;;5048674;28;20032;-79
2020/12/30 12:18:46;;;;;;;28.80;19.60;;;3.50;99.90;;;;;;5030743;28;20025;-78
2020/12/30 12:21:12;;;;;;;29.25;18.38;;;3.60;99.90;;;;;;5045611;28;20025;-78
2020/12/30 12:23:37;;;;;;;29.83;20.13;;;3.60;99.90;;;;;;5029394;28;20053;-79
2020/12/30 12:26:03;;;;;;;29.50;19.00;;;3.60;99.90;;;;;;5028692;28;20316;-79
2020/12/30 12:28:44;;;;;;;30.90;19.38;;;3.60;99.90;;;;;;5031949;28;20021;-79
2020/12/30 12:31:17;;;;;;;25.50;18.35;;;3.60;99.90;;;;;;5031068;28;20079;-78
2020/12/30 12:33:43;;;;;;;30.58;17.67;;;3.60;99.90;;;;;;5041441;28;20125;-80
2020/12/30 12:36:15;;;;;;;30.95;19.63;;;3.70;99.90;;;;;;5029606;28;20109;-79
2020/12/30 12:38:42;;;;;;;30.80;19.13;;;3.60;99.90;;;;;;5031800;28;20613;-78